Time;durP1;ratioP1;P1;durP2;ratioP2;P2;SDS_P1;SDS_P2;PMS_P1;PMS_P2;Temp;Humidity;BMP_temperature;BMP_pressure;BME280_temperature;BME280_humidity;BME280_pressure;Samples;Min_cycle;Max_cycle;Signal;HPM_P1;HPM_P2
2021/03/30 00:00:21;;;;;;;6.33;5.10;;;13.90;17.60;;;;;;4976916;28;20896;-64
2021/03/30 00:02:48;;;;;;;5.83;5.27;;;14.00;17.90;;;;;;4977094;28;20464;-65
2021/03/30 00:05:13;;;;;;;6.07;4.87;;;13.90;18.20;;;;;;4981828;28;20856;-66
2021/03/30 00:07:39;;;;;;;5.47;4.80;;;13.80;18.40;;;;;;4984207;28;20405;-65
2021/03/30 00:10:07;;;;;;;5.77;5.10;;;13.80;18.50;;;;;;4982263;28;20584;-65
2021/03/30 00:12:33;;;;;;;6.40;5.03;;;13.70;18.40;;;;;;4980860;28;20786;-65
2021/03/30 00:14:59;;;;;;;6.23;5.17;;;13.70;18.90;;;;;;4979793;28;20448;-64
2021/03/30 00:17:25;;;;;;;8.23;4.80;;;13.70;18.80;;;;;;4980163;28;20463;-65
2021/03/30 00:19:50;;;;;;;6.20;5.60;;;13.80;18.90;;;;;;4980782;28;20449;-65
2021/03/30 00:22:16;;;;;;;6.17;5.57;;;13.60;18.90;;;;;;4980928;28;20229;-65
2021/03/30 00:24:41;;;;;;;6.87;6.23;;;13.60;19.00;;;;;;4966850;28;20226;-64
2021/03/30 00:27:07;;;;;;;5.10;4.70;;;13.60;19.10;;;;;;4980541;28;20230;-65
2021/03/30 00:29:42;;;;;;;5.40;4.90;;;13.50;19.60;;;;;;4974593;28;20226;-65
2021/03/30 00:32:09;;;;;;;5.67;5.07;;;13.60;19.40;;;;;;4982678;28;20645;-64
2021/03/30 00:34:34;;;;;;;6.97;4.90;;;13.80;18.60;;;;;;4986511;28;20440;-64
2021/03/30 00:37:00;;;;;;;6.43;4.83;;;13.80;18.50;;;;;;4980584;28;20622;-65
2021/03/30 00:39:25;;;;;;;6.73;4.70;;;13.70;18.70;;;;;;4979148;28;20233;-65
2021/03/30 00:41:51;;;;;;;4.83;4.43;;;13.60;18.60;;;;;;4980536;28;20214;-64
2021/03/30 00:44:16;;;;;;;5.50;4.67;;;13.60;18.80;;;;;;4980234;28;20225;-65
2021/03/30 00:46:45;;;;;;;4.67;4.10;;;13.30;19.20;;;;;;4978943;28;20230;-65
2021/03/30 00:49:13;;;;;;;4.83;4.43;;;13.40;19.70;;;;;;4980048;28;20238;-65
2021/03/30 00:51:39;;;;;;;7.00;4.53;;;13.40;19.80;;;;;;4980795;28;20453;-64
2021/03/30 00:54:05;;;;;;;5.07;4.57;;;13.40;19.40;;;;;;4979466;28;21014;-65
2021/03/30 00:56:31;;;;;;;4.60;4.20;;;13.50;19.50;;;;;;4978594;28;20316;-65
2021/03/30 00:58:58;;;;;;;7.03;5.00;;;13.40;19.40;;;;;;4979886;28;20230;-65
2021/03/30 01:01:23;;;;;;;6.60;4.70;;;13.20;19.80;;;;;;4980855;28;20182;-66
2021/03/30 01:03:49;;;;;;;10.83;4.93;;;13.10;20.00;;;;;;4979618;28;20452;-66
2021/03/30 01:06:14;;;;;;;5.47;5.07;;;13.10;19.20;;;;;;4980145;28;20311;-65
2021/03/30 01:08:58;;;;;;;4.47;4.10;;;13.20;19.30;;;;;;4980608;28;20233;-64
2021/03/30 01:11:23;;;;;;;4.70;4.30;;;13.30;18.80;;;;;;4980119;28;20229;-64
2021/03/30 01:14:11;;;;;;;6.00;5.00;;;13.40;18.70;;;;;;4980167;28;20468;-65
2021/03/30 01:16:40;;;;;;;5.27;4.77;;;13.50;18.20;;;;;;4978390;28;20596;-66
2021/03/30 01:19:17;;;;;;;7.10;5.33;;;13.30;18.50;;;;;;4979015;28;20587;-63
2021/03/30 01:22:03;;;;;;;7.90;4.97;;;13.20;18.50;;;;;;4978661;28;20553;-65
2021/03/30 01:24:38;;;;;;;4.80;4.30;;;13.00;19.30;;;;;;4978349;28;20981;-63
2021/03/30 01:27:21;;;;;;;5.90;4.63;;;13.20;20.20;;;;;;4979517;28;20452;-64
2021/03/30 01:29:48;;;;;;;5.33;4.80;;;13.30;20.20;;;;;;4994435;28;20442;-64
2021/03/30 01:32:33;;;;;;;5.13;4.40;;;13.40;19.90;;;;;;4979459;28;20554;-65
2021/03/30 01:35:00;;;;;;;8.33;5.53;;;13.40;19.80;;;;;;4981582;28;20457;-65
2021/03/30 01:37:27;;;;;;;4.90;4.50;;;13.50;20.10;;;;;;4978713;28;20503;-65
2021/03/30 01:39:56;;;;;;;5.13;4.63;;;13.40;20.30;;;;;;4979010;28;20532;-65
2021/03/30 01:42:25;;;;;;;4.80;4.23;;;13.30;20.30;;;;;;4978325;28;20445;-65
2021/03/30 01:44:51;;;;;;;6.33;4.90;;;12.90;20.80;;;;;;4972505;28;20449;-65
2021/03/30 01:47:19;;;;;;;6.10;5.30;;;13.10;19.80;;;;;;4958867;28;20481;-65
2021/03/30 01:49:46;;;;;;;6.90;5.40;;;13.00;20.50;;;;;;4960181;28;20717;-65
2021/03/30 01:52:15;;;;;;;6.70;5.73;;;13.00;20.40;;;;;;4959254;28;20977;-64
2021/03/30 01:54:42;;;;;;;5.43;4.93;;;13.10;20.80;;;;;;4962940;28;20940;-64
2021/03/30 01:57:08;;;;;;;7.07;5.10;;;13.20;20.70;;;;;;4957786;28;20785;-64
2021/03/30 01:59:34;;;;;;;10.80;5.93;;;13.10;20.60;;;;;;4959000;28;20458;-65
2021/03/30 02:02:01;;;;;;;5.70;5.20;;;13.10;20.80;;;;;;4958405;28;20452;-65
2021/03/30 02:04:28;;;;;;;5.57;5.07;;;13.10;20.80;;;;;;4959489;28;20486;-64
2021/03/30 02:06:55;;;;;;;6.17;5.10;;;13.00;20.80;;;;;;4961357;28;20458;-65
2021/03/30 02:09:26;;;;;;;5.23;4.83;;;12.80;21.10;;;;;;4958753;28;20458;-65
2021/03/30 02:11:59;;;;;;;14.13;4.70;;;12.70;21.20;;;;;;4958384;28;20496;-66
2021/03/30 02:14:25;;;;;;;7.27;5.50;;;12.90;21.50;;;;;;4958822;28;20520;-63
2021/03/30 02:16:59;;;;;;;7.27;5.47;;;12.80;21.40;;;;;;4958128;28;20489;-64
2021/03/30 02:19:33;;;;;;;8.23;5.07;;;12.60;21.50;;;;;;4959343;28;20230;-65
2021/03/30 02:22:08;;;;;;;5.90;4.77;;;12.40;22.00;;;;;;4958964;28;20521;-65
2021/03/30 02:24:35;;;;;;;5.03;4.63;;;12.30;22.30;;;;;;4959763;28;20498;-64
2021/03/30 02:27:06;;;;;;;5.47;4.97;;;12.50;22.10;;;;;;4959904;28;20450;-64
2021/03/30 02:29:34;;;;;;;6.37;4.23;;;12.60;22.00;;;;;;4960299;28;20438;-64
2021/03/30 02:32:05;;;;;;;5.27;4.93;;;12.70;21.60;;;;;;4957631;28;20469;-65
2021/03/30 02:34:33;;;;;;;4.60;4.20;;;12.60;21.60;;;;;;4961065;28;20460;-66
2021/03/30 02:36:59;;;;;;;4.83;4.43;;;12.50;22.10;;;;;;4959715;28;20437;-65
2021/03/30 02:39:27;;;;;;;7.63;4.93;;;12.40;22.00;;;;;;4960546;28;21045;-65
2021/03/30 02:41:56;;;;;;;5.30;4.57;;;12.20;22.40;;;;;;4957236;28;20449;-66
2021/03/30 02:44:22;;;;;;;5.13;4.73;;;12.20;22.70;;;;;;4960331;28;20634;-65
2021/03/30 02:46:49;;;;;;;8.50;4.77;;;12.00;23.20;;;;;;4959344;28;20469;-65
2021/03/30 02:49:17;;;;;;;8.10;5.07;;;12.30;22.80;;;;;;4960589;28;20462;-66
2021/03/30 02:51:45;;;;;;;5.13;4.30;;;12.40;22.60;;;;;;4956826;28;21443;-66
2021/03/30 02:54:11;;;;;;;5.70;5.30;;;12.40;22.10;;;;;;4960318;28;20462;-66
2021/03/30 02:56:37;;;;;;;5.60;4.03;;;12.40;22.00;;;;;;4957542;28;21033;-66
2021/03/30 02:59:03;;;;;;;5.00;4.23;;;12.40;21.70;;;;;;4959197;28;20831;-66
2021/03/30 03:01:30;;;;;;;5.67;4.47;;;12.50;21.70;;;;;;4956983;28;20838;-66
2021/03/30 03:03:58;;;;;;;4.90;4.43;;;12.50;21.70;;;;;;4959990;28;20662;-65
2021/03/30 03:06:24;;;;;;;6.10;5.50;;;12.40;21.70;;;;;;4957148;28;20472;-64
2021/03/30 03:08:52;;;;;;;5.40;4.93;;;12.20;21.90;;;;;;4956563;28;20461;-65
2021/03/30 03:11:18;;;;;;;5.83;4.80;;;12.20;22.40;;;;;;4959589;28;20313;-65
2021/03/30 03:13:47;;;;;;;5.30;4.47;;;12.20;22.60;;;;;;4959622;28;20469;-65
2021/03/30 03:16:12;;;;;;;5.63;5.13;;;12.20;22.30;;;;;;4960296;28;20457;-65
2021/03/30 03:18:43;;;;;;;4.53;4.23;;;12.20;22.60;;;;;;4957985;28;20450;-65
2021/03/30 03:21:09;;;;;;;11.17;5.70;;;12.10;22.70;;;;;;4959803;28;20230;-65
2021/03/30 03:23:38;;;;;;;5.67;5.07;;;12.20;22.40;;;;;;4958134;28;20488;-64
2021/03/30 03:26:06;;;;;;;5.07;4.57;;;12.20;22.90;;;;;;4960360;28;20469;-65
2021/03/30 03:28:32;;;;;;;6.57;4.73;;;12.30;22.70;;;;;;4956058;28;20453;-65
2021/03/30 03:30:58;;;;;;;6.97;5.30;;;12.40;23.00;;;;;;4958612;28;20468;-64
2021/03/30 03:33:23;;;;;;;6.73;4.60;;;12.40;22.70;;;;;;4957980;28;20454;-66
2021/03/30 03:36:01;;;;;;;8.00;6.63;;;12.30;22.80;;;;;;4959366;28;20939;-64
2021/03/30 03:38:26;;;;;;;9.23;5.40;;;12.40;22.70;;;;;;4959592;28;20316;-65
2021/03/30 03:40:52;;;;;;;5.60;4.87;;;12.30;22.80;;;;;;4962095;28;20596;-66
2021/03/30 03:43:17;;;;;;;5.73;4.63;;;12.30;22.60;;;;;;4961830;28;20242;-65
2021/03/30 03:45:43;;;;;;;6.53;5.03;;;12.20;22.70;;;;;;4964291;28;20229;-66
2021/03/30 03:48:08;;;;;;;5.00;4.43;;;12.30;22.60;;;;;;4973467;28;20240;-66
2021/03/30 03:50:34;;;;;;;6.43;5.80;;;12.30;22.70;;;;;;4980345;28;20233;-65
2021/03/30 03:53:00;;;;;;;7.23;5.30;;;12.20;23.00;;;;;;4982260;28;20229;-65
2021/03/30 03:55:27;;;;;;;8.50;5.60;;;12.30;22.80;;;;;;4983951;28;20233;-65
2021/03/30 03:57:58;;;;;;;5.67;5.17;;;12.20;22.80;;;;;;4981191;28;20463;-63
2021/03/30 04:00:25;;;;;;;6.30;5.50;;;12.30;22.80;;;;;;4983818;28;20468;-63
2021/03/30 04:03:05;;;;;;;7.40;4.77;;;12.20;22.60;;;;;;4981286;28;20475;-64
2021/03/30 04:05:43;;;;;;;6.93;5.07;;;12.00;23.00;;;;;;4980032;28;20850;-64
2021/03/30 04:08:12;;;;;;;8.90;5.20;;;11.50;24.00;;;;;;4981783;28;20437;-64
2021/03/30 04:10:42;;;;;;;7.00;5.27;;;11.10;24.60;;;;;;4981981;28;20441;-64
2021/03/30 04:13:08;;;;;;;9.30;5.20;;;11.10;25.20;;;;;;4981109;28;20456;-63
2021/03/30 04:15:34;;;;;;;11.90;5.50;;;11.10;25.00;;;;;;4983321;28;20539;-64
2021/03/30 04:18:00;;;;;;;8.30;5.40;;;11.00;25.30;;;;;;4979600;28;20535;-64
2021/03/30 04:20:26;;;;;;;10.97;5.70;;;11.10;25.60;;;;;;4980653;28;20226;-65
2021/03/30 04:22:56;;;;;;;5.40;4.90;;;11.00;25.40;;;;;;4982786;28;20229;-64
2021/03/30 04:25:22;;;;;;;6.47;5.13;;;11.00;25.40;;;;;;4996186;28;20229;-64
2021/03/30 04:27:48;;;;;;;6.73;5.33;;;11.40;24.50;;;;;;4979949;28;20441;-66
2021/03/30 04:30:14;;;;;;;8.67;5.50;;;11.50;24.20;;;;;;4981492;28;20503;-66
2021/03/30 04:32:39;;;;;;;6.43;5.67;;;11.60;24.30;;;;;;4982816;28;20232;-66
2021/03/30 04:35:05;;;;;;;5.50;5.00;;;11.80;24.40;;;;;;4981595;28;20457;-65
2021/03/30 04:37:31;;;;;;;6.20;4.87;;;11.80;24.10;;;;;;4983703;28;20638;-66
2021/03/30 04:39:56;;;;;;;5.10;4.70;;;11.80;24.00;;;;;;4978997;28;20452;-66
2021/03/30 04:42:22;;;;;;;7.60;6.93;;;11.80;24.10;;;;;;4985436;28;20178;-65
2021/03/30 04:44:47;;;;;;;6.07;5.10;;;11.60;24.30;;;;;;4980371;28;20218;-65
2021/03/30 04:47:13;;;;;;;6.60;4.73;;;11.70;24.10;;;;;;4980796;28;20213;-65
2021/03/30 04:49:38;;;;;;;7.73;5.20;;;11.70;23.90;;;;;;4977790;28;20229;-65
2021/03/30 04:52:05;;;;;;;7.37;4.80;;;11.70;23.30;;;;;;4979975;28;20225;-65
2021/03/30 04:54:31;;;;;;;7.83;5.53;;;11.80;23.60;;;;;;4978140;28;20248;-65
2021/03/30 04:56:56;;;;;;;7.73;4.40;;;11.90;23.50;;;;;;4979433;28;20445;-65
2021/03/30 04:59:22;;;;;;;5.70;5.07;;;11.70;23.10;;;;;;4978355;28;20225;-66
2021/03/30 05:01:47;;;;;;;8.00;5.20;;;11.70;23.00;;;;;;4978672;28;20722;-65
2021/03/30 05:04:13;;;;;;;7.53;5.10;;;11.50;23.10;;;;;;4978859;28;20229;-65
2021/03/30 05:06:38;;;;;;;9.33;6.50;;;11.70;23.10;;;;;;4978565;28;20707;-65
2021/03/30 05:09:04;;;;;;;7.60;5.43;;;11.70;22.90;;;;;;4980208;28;20234;-65
2021/03/30 05:11:30;;;;;;;8.13;5.30;;;11.70;23.00;;;;;;4981136;28;20438;-65
2021/03/30 05:13:55;;;;;;;4.80;4.37;;;11.70;22.80;;;;;;4981505;28;20444;-64
2021/03/30 05:16:21;;;;;;;5.13;4.63;;;11.70;22.80;;;;;;4981311;28;20276;-64
2021/03/30 05:18:47;;;;;;;5.07;4.50;;;11.80;22.60;;;;;;4979124;28;20234;-65
2021/03/30 05:21:12;;;;;;;8.50;5.17;;;11.80;22.60;;;;;;4980151;28;20222;-67
2021/03/30 05:23:38;;;;;;;8.73;6.17;;;11.80;23.20;;;;;;4979740;28;20284;-65
2021/03/30 05:26:04;;;;;;;15.10;10.07;;;11.80;23.30;;;;;;4981037;28;20232;-66
2021/03/30 05:28:29;;;;;;;11.67;6.67;;;11.80;23.40;;;;;;4976618;28;20360;-65
2021/03/30 05:30:55;;;;;;;6.47;5.83;;;11.80;24.40;;;;;;4979772;28;20218;-66
2021/03/30 05:33:21;;;;;;;7.63;6.87;;;11.90;23.60;;;;;;4977511;28;20732;-66
2021/03/30 05:35:46;;;;;;;10.23;5.70;;;11.90;23.50;;;;;;4978329;28;20253;-67
2021/03/30 05:38:12;;;;;;;14.47;5.47;;;12.00;27.80;;;;;;4979505;28;20577;-67
2021/03/30 05:40:38;;;;;;;9.60;4.93;;;12.10;30.10;;;;;;4978989;28;20257;-67
2021/03/30 05:43:04;;;;;;;6.03;4.67;;;12.30;33.90;;;;;;4977595;28;20465;-68
2021/03/30 05:45:31;;;;;;;6.13;5.60;;;12.30;27.60;;;;;;4979371;28;20456;-66
2021/03/30 05:47:57;;;;;;;7.33;5.10;;;12.40;27.90;;;;;;4977801;28;20226;-68
2021/03/30 05:50:27;;;;;;;6.20;4.93;;;12.70;27.70;;;;;;4978871;28;20452;-69
2021/03/30 05:53:02;;;;;;;6.50;5.87;;;12.40;25.80;;;;;;4979651;28;20900;-69
2021/03/30 05:55:30;;;;;;;10.93;6.63;;;12.20;27.80;;;;;;4979448;28;20762;-66
2021/03/30 05:57:58;;;;;;;7.33;5.70;;;12.20;24.90;;;;;;4976856;28;20445;-68
2021/03/30 06:00:38;;;;;;;8.30;5.93;;;13.60;30.50;;;;;;4978547;28;21014;-66
2021/03/30 06:03:07;;;;;;;11.40;6.10;;;13.10;21.20;;;;;;4976074;28;20477;-66
2021/03/30 06:05:33;;;;;;;6.07;5.53;;;12.60;21.70;;;;;;4978016;28;20457;-65
2021/03/30 06:08:01;;;;;;;11.30;5.80;;;12.30;21.70;;;;;;4969830;28;20449;-65
2021/03/30 06:10:28;;;;;;;10.70;6.70;;;12.20;22.60;;;;;;4957498;28;20453;-65
2021/03/30 06:12:55;;;;;;;7.10;6.07;;;12.20;22.40;;;;;;4983137;28;20940;-65
2021/03/30 06:15:43;;;;;;;9.73;6.63;;;12.20;22.50;;;;;;4979055;28;20445;-66
2021/03/30 06:18:20;;;;;;;14.53;7.73;;;12.00;22.10;;;;;;4977394;28;21762;-66
2021/03/30 06:20:46;;;;;;;14.43;7.90;;;11.90;22.00;;;;;;4978066;28;20460;-66
2021/03/30 06:23:11;;;;;;;8.93;7.23;;;11.80;23.00;;;;;;4977126;28;20466;-67
2021/03/30 06:28:58;;;;;;;10.70;7.03;;;12.10;22.50;;;;;;4958668;28;20272;-64
2021/03/30 06:31:24;;;;;;;9.10;6.47;;;12.10;22.60;;;;;;4959257;28;20450;-66
2021/03/30 06:33:56;;;;;;;8.23;6.20;;;12.20;22.70;;;;;;4956773;28;20242;-65
2021/03/30 06:36:31;;;;;;;8.93;6.70;;;12.00;22.20;;;;;;4957321;28;20631;-66
2021/03/30 06:39:03;;;;;;;9.80;6.50;;;12.00;22.50;;;;;;4956748;28;20525;-65
2021/03/30 06:41:53;;;;;;;8.50;5.70;;;12.00;22.70;;;;;;4958155;28;20704;-66
2021/03/30 06:47:03;;;;;;;7.07;6.37;;;12.20;22.70;;;;;;4958919;28;20879;-66
2021/03/30 06:49:31;;;;;;;8.53;6.20;;;12.30;22.40;;;;;;4959479;28;20620;-66
2021/03/30 06:51:58;;;;;;;13.70;7.07;;;12.50;22.30;;;;;;4957659;28;20807;-66
2021/03/30 06:54:23;;;;;;;16.23;7.20;;;12.40;22.40;;;;;;4958637;28;20462;-66
2021/03/30 06:56:53;;;;;;;10.33;6.73;;;12.50;22.00;;;;;;4959873;28;20510;-66
2021/03/30 06:59:20;;;;;;;11.40;6.93;;;12.40;22.00;;;;;;4957976;28;20229;-66
2021/03/30 07:01:49;;;;;;;9.37;6.83;;;12.40;22.30;;;;;;4957377;28;20457;-66
2021/03/30 07:04:16;;;;;;;8.87;7.97;;;12.50;22.40;;;;;;4959787;28;20886;-66
2021/03/30 07:06:48;;;;;;;12.93;8.17;;;12.50;22.50;;;;;;4957530;28;20839;-65
2021/03/30 07:09:15;;;;;;;16.43;8.07;;;12.50;22.70;;;;;;4959798;28;20450;-66
2021/03/30 07:11:41;;;;;;;33.13;9.50;;;12.60;22.60;;;;;;4956501;28;20450;-67
2021/03/30 07:14:07;;;;;;;13.23;7.73;;;12.60;22.50;;;;;;4958254;28;20465;-66
2021/03/30 07:16:43;;;;;;;9.20;7.67;;;12.80;22.50;;;;;;4958188;28;20454;-65
2021/03/30 07:19:10;;;;;;;9.43;7.77;;;12.90;22.40;;;;;;4957299;28;20704;-66
2021/03/30 07:21:53;;;;;;;15.17;7.27;;;12.80;22.20;;;;;;4959384;28;20531;-65
2021/03/30 07:24:23;;;;;;;11.50;7.77;;;12.80;22.20;;;;;;4958622;28;20485;-66
2021/03/30 07:27:02;;;;;;;16.27;8.10;;;12.90;22.30;;;;;;4957925;28;20446;-65
2021/03/30 07:29:36;;;;;;;22.10;11.57;;;12.90;22.20;;;;;;4956666;28;20480;-65
2021/03/30 07:32:20;;;;;;;21.30;9.80;;;12.80;22.30;;;;;;4957547;28;20957;-66
2021/03/30 07:35:15;;;;;;;17.77;7.90;;;12.80;22.30;;;;;;4956862;28;20472;-66
2021/03/30 07:37:44;;;;;;;17.23;9.40;;;12.90;22.70;;;;;;4957544;28;21040;-65
2021/03/30 07:40:12;;;;;;;22.13;10.60;;;13.00;22.30;;;;;;4956122;28;20489;-66
2021/03/30 07:42:40;;;;;;;25.13;9.10;;;13.10;22.30;;;;;;4970670;28;20465;-67
2021/03/30 07:45:08;;;;;;;25.60;9.93;;;13.10;21.90;;;;;;4979778;28;20452;-67
2021/03/30 07:47:34;;;;;;;15.00;8.93;;;13.20;22.30;;;;;;4978095;28;20519;-66
2021/03/30 07:50:00;;;;;;;28.03;11.63;;;13.30;22.30;;;;;;4979631;28;20500;-71
2021/03/30 07:52:28;;;;;;;17.70;8.23;;;13.40;22.10;;;;;;4972870;28;20448;-66
2021/03/30 07:55:21;;;;;;;20.40;11.03;;;13.40;22.10;;;;;;4959325;28;20234;-67
2021/03/30 07:57:58;;;;;;;20.93;13.30;;;13.40;21.90;;;;;;4960735;28;20445;-66
2021/03/30 08:00:33;;;;;;;48.50;17.00;;;13.50;21.70;;;;;;4957725;28;20682;-67
2021/03/30 08:03:18;;;;;;;14.10;8.30;;;13.60;22.10;;;;;;4957771;28;20556;-68
2021/03/30 08:05:44;;;;;;;17.33;8.73;;;13.70;21.60;;;;;;4958815;28;20442;-66
2021/03/30 08:08:21;;;;;;;11.90;8.43;;;13.80;22.20;;;;;;4958129;28;20464;-67
2021/03/30 08:10:48;;;;;;;12.70;8.93;;;13.90;21.50;;;;;;4959805;28;20781;-67
2021/03/30 08:13:35;;;;;;;8.60;7.80;;;14.00;21.10;;;;;;4958814;28;20458;-67
2021/03/30 08:16:05;;;;;;;12.87;9.30;;;14.00;21.00;;;;;;4958419;28;20874;-65
2021/03/30 08:18:33;;;;;;;9.73;8.47;;;14.00;21.60;;;;;;4957218;28;20485;-66
2021/03/30 08:21:00;;;;;;;8.50;7.67;;;14.10;22.00;;;;;;4961932;28;20493;-66
2021/03/30 08:23:28;;;;;;;10.33;7.93;;;14.20;21.40;;;;;;4960818;28;20834;-69
2021/03/30 08:26:16;;;;;;;14.40;8.17;;;14.30;21.60;;;;;;4961102;28;20961;-67
2021/03/30 08:28:47;;;;;;;13.00;8.47;;;14.50;21.10;;;;;;4962204;28;20445;-67
2021/03/30 08:31:14;;;;;;;9.33;7.83;;;14.50;21.50;;;;;;4962225;28;20863;-69
2021/03/30 08:33:41;;;;;;;13.07;7.23;;;14.60;21.40;;;;;;4962520;28;20856;-69
2021/03/30 08:36:25;;;;;;;8.80;7.97;;;14.70;21.00;;;;;;4961094;28;20446;-66
2021/03/30 08:38:54;;;;;;;8.93;8.03;;;15.00;21.00;;;;;;4978882;28;21009;-67
2021/03/30 08:41:41;;;;;;;10.97;8.77;;;15.10;20.50;;;;;;4980817;28;20589;-66
2021/03/30 08:44:17;;;;;;;9.80;8.80;;;15.10;20.20;;;;;;4994870;28;20598;-67
2021/03/30 08:46:49;;;;;;;10.13;7.90;;;15.20;20.30;;;;;;4960703;28;20767;-67
2021/03/30 08:49:20;;;;;;;11.83;8.70;;;15.40;20.70;;;;;;4963295;28;20589;-67
2021/03/30 08:51:46;;;;;;;14.90;9.53;;;15.40;20.30;;;;;;4961272;28;20462;-70
2021/03/30 08:54:13;;;;;;;9.27;7.20;;;15.50;20.40;;;;;;4960037;28;20458;-68
2021/03/30 08:56:41;;;;;;;14.10;8.60;;;15.60;20.10;;;;;;4963595;28;20458;-70
2021/03/30 08:59:09;;;;;;;14.10;8.60;;;15.70;19.80;;;;;;4961584;28;20967;-68
2021/03/30 09:01:35;;;;;;;16.87;9.70;;;15.70;19.10;;;;;;4961387;28;20453;-67
2021/03/30 09:04:02;;;;;;;10.00;7.93;;;15.80;19.90;;;;;;4961777;28;21013;-68
2021/03/30 09:06:40;;;;;;;11.10;9.17;;;15.90;19.80;;;;;;4961843;28;20454;-67
2021/03/30 09:09:22;;;;;;;11.97;7.93;;;16.00;19.20;;;;;;4958968;28;20457;-65
2021/03/30 09:11:48;;;;;;;20.40;8.90;;;16.10;20.70;;;;;;4961341;28;20462;-68
2021/03/30 09:14:19;;;;;;;7.97;7.17;;;16.20;19.90;;;;;;4963303;28;20458;-66
2021/03/30 09:16:47;;;;;;;11.37;7.67;;;16.30;19.60;;;;;;4959713;28;20520;-68
2021/03/30 09:19:20;;;;;;;12.93;8.03;;;16.40;18.70;;;;;;4962707;28;20551;-68
2021/03/30 09:21:49;;;;;;;9.60;7.13;;;16.50;19.00;;;;;;4964204;28;20454;-68
2021/03/30 09:24:27;;;;;;;11.77;9.00;;;16.60;18.40;;;;;;4961267;28;20822;-68
2021/03/30 09:26:52;;;;;;;6.83;6.10;;;16.70;18.30;;;;;;4961200;28;20608;-68
2021/03/30 09:29:18;;;;;;;7.87;7.23;;;16.90;18.00;;;;;;4968848;28;20536;-68
2021/03/30 09:31:46;;;;;;;14.30;7.20;;;17.00;18.40;;;;;;4979465;28;20240;-68
2021/03/30 09:34:13;;;;;;;7.40;6.80;;;17.10;18.50;;;;;;4976370;28;20269;-69
2021/03/30 09:36:43;;;;;;;7.70;7.00;;;17.30;18.10;;;;;;4970846;28;20460;-68
2021/03/30 09:39:16;;;;;;;9.20;7.13;;;17.40;17.00;;;;;;4982746;28;20417;-69
2021/03/30 09:41:42;;;;;;;10.57;7.67;;;17.50;17.90;;;;;;4980718;28;21013;-69
2021/03/30 09:44:09;;;;;;;8.63;6.53;;;17.70;17.50;;;;;;4982036;28;20836;-70
2021/03/30 09:46:35;;;;;;;34.37;10.47;;;17.80;16.80;;;;;;4981512;28;20468;-69
2021/03/30 09:49:02;;;;;;;11.20;7.10;;;18.10;17.30;;;;;;4979380;28;20452;-71
2021/03/30 09:51:27;;;;;;;9.17;6.80;;;18.30;17.10;;;;;;4979372;28;20237;-71
2021/03/30 09:53:53;;;;;;;8.90;6.67;;;18.50;16.60;;;;;;4981069;28;20514;-67
2021/03/30 09:56:26;;;;;;;17.17;7.20;;;18.70;16.80;;;;;;4979797;28;20240;-68
2021/03/30 09:58:56;;;;;;;11.03;7.57;;;18.70;16.50;;;;;;4981045;28;20240;-71
2021/03/30 10:01:23;;;;;;;8.10;7.10;;;18.90;16.10;;;;;;4979925;28;20517;-69
2021/03/30 10:03:50;;;;;;;7.87;7.17;;;19.10;16.90;;;;;;4979969;28;20831;-69
2021/03/30 10:06:19;;;;;;;9.33;7.53;;;19.30;16.40;;;;;;4979629;28;20453;-67
2021/03/30 10:08:46;;;;;;;11.70;8.30;;;19.40;16.50;;;;;;4980626;28;20464;-67
2021/03/30 10:11:12;;;;;;;34.30;10.20;;;19.50;16.40;;;;;;4981475;28;20484;-67
2021/03/30 10:13:40;;;;;;;14.17;7.43;;;19.60;16.00;;;;;;4979726;28;21000;-67
2021/03/30 10:16:08;;;;;;;12.50;7.37;;;19.80;15.90;;;;;;4978267;28;20488;-69
2021/03/30 10:18:38;;;;;;;8.90;7.50;;;19.80;15.60;;;;;;4962016;28;20465;-67
2021/03/30 10:21:12;;;;;;;9.33;7.37;;;19.90;14.90;;;;;;4960423;28;20456;-68
2021/03/30 10:23:47;;;;;;;9.00;7.23;;;20.10;15.40;;;;;;4961237;28;20485;-67
2021/03/30 10:26:15;;;;;;;11.67;7.30;;;20.20;14.80;;;;;;4959744;28;20441;-69
2021/03/30 10:28:49;;;;;;;12.70;8.47;;;20.30;14.20;;;;;;4961451;28;20446;-69
2021/03/30 10:31:31;;;;;;;7.70;6.90;;;20.30;14.30;;;;;;4959817;28;20442;-69
2021/03/30 10:33:57;;;;;;;11.37;7.53;;;20.40;13.40;;;;;;4959871;28;20465;-69
2021/03/30 10:36:23;;;;;;;9.93;7.30;;;20.50;14.10;;;;;;4959699;28;20953;-67
2021/03/30 10:39:09;;;;;;;7.87;7.10;;;20.60;12.40;;;;;;4959275;28;20226;-67
2021/03/30 10:41:42;;;;;;;10.20;8.13;;;20.70;13.60;;;;;;4960311;28;20442;-67
2021/03/30 10:44:09;;;;;;;9.07;6.80;;;20.90;13.70;;;;;;4959607;28;21038;-69
2021/03/30 10:46:43;;;;;;;8.43;6.53;;;20.90;12.90;;;;;;4958391;28;20456;-69
2021/03/30 10:49:09;;;;;;;7.00;6.30;;;21.00;13.10;;;;;;4958963;28;20454;-69
2021/03/30 10:51:39;;;;;;;8.47;6.90;;;21.10;12.30;;;;;;4959922;28;20473;-72
2021/03/30 10:54:06;;;;;;;5.80;5.33;;;21.20;11.90;;;;;;4961907;28;20813;-71
2021/03/30 10:56:32;;;;;;;6.30;5.70;;;21.30;11.10;;;;;;4962138;28;20826;-68
2021/03/30 10:58:58;;;;;;;13.67;8.07;;;21.40;9.40;;;;;;4977847;28;20975;-68
2021/03/30 11:01:24;;;;;;;9.17;8.30;;;21.50;11.10;;;;;;4978558;28;20453;-70
2021/03/30 11:03:50;;;;;;;8.37;7.63;;;21.70;10.80;;;;;;4978217;28;20471;-70
2021/03/30 11:06:15;;;;;;;7.50;6.70;;;22.10;10.90;;;;;;4978863;28;20236;-68
2021/03/30 11:08:41;;;;;;;10.33;6.83;;;22.10;8.90;;;;;;4979246;28;20480;-67
2021/03/30 11:11:07;;;;;;;9.10;6.20;;;22.20;8.80;;;;;;4982670;28;20185;-68
2021/03/30 11:13:33;;;;;;;7.67;5.67;;;22.30;10.30;;;;;;4978308;28;20619;-68
2021/03/30 11:15:58;;;;;;;7.30;6.50;;;22.60;8.20;;;;;;4962430;28;20493;-69
2021/03/30 11:18:24;;;;;;;5.63;5.13;;;22.60;8.90;;;;;;4978382;28;20287;-68
2021/03/30 11:20:50;;;;;;;5.73;5.17;;;22.80;7.60;;;;;;4979797;28;20620;-68
2021/03/30 11:23:15;;;;;;;6.43;5.77;;;22.90;8.50;;;;;;4978632;28;20278;-67
2021/03/30 11:25:41;;;;;;;6.30;5.77;;;23.10;7.60;;;;;;4974602;28;20222;-67
2021/03/30 11:28:10;;;;;;;8.07;6.10;;;23.30;7.00;;;;;;4957320;28;20223;-67
2021/03/30 11:30:46;;;;;;;5.67;5.17;;;23.20;6.00;;;;;;4958437;28;20276;-66
2021/03/30 11:33:18;;;;;;;7.50;6.80;;;22.90;6.10;;;;;;4959365;28;20945;-66
2021/03/30 11:35:48;;;;;;;5.00;4.60;;;23.30;8.20;;;;;;4962284;28;20509;-69
2021/03/30 11:38:14;;;;;;;7.53;6.57;;;23.60;6.60;;;;;;4959102;28;20999;-67
2021/03/30 11:40:40;;;;;;;11.80;6.00;;;23.70;6.70;;;;;;4957362;28;20442;-67
2021/03/30 11:43:07;;;;;;;5.70;4.80;;;23.90;6.00;;;;;;4978508;28;20230;-67
2021/03/30 11:45:32;;;;;;;32.00;9.47;;;24.10;5.30;;;;;;4977513;28;20449;-68
2021/03/30 11:48:00;;;;;;;8.07;6.10;;;24.00;6.40;;;;;;4976289;28;21095;-67
2021/03/30 11:50:25;;;;;;;6.73;5.27;;;24.20;5.20;;;;;;4978513;28;20248;-68
2021/03/30 11:52:51;;;;;;;6.67;6.10;;;24.80;5.10;;;;;;4976772;28;20461;-69
2021/03/30 11:55:16;;;;;;;8.53;4.90;;;24.70;5.50;;;;;;4978696;28;20596;-67
2021/03/30 11:57:45;;;;;;;34.50;7.63;;;24.60;5.10;;;;;;4978683;28;20232;-68
2021/03/30 12:00:12;;;;;;;8.13;5.57;;;24.60;6.30;;;;;;4978333;28;20576;-67
2021/03/30 12:02:38;;;;;;;6.10;5.60;;;24.40;5.40;;;;;;4982799;28;20464;-68
2021/03/30 12:05:04;;;;;;;7.00;5.67;;;24.20;5.50;;;;;;4984125;28;20453;-70
2021/03/30 12:07:30;;;;;;;5.80;5.23;;;24.00;5.10;;;;;;4980275;28;20449;-68
2021/03/30 12:09:57;;;;;;;5.10;4.60;;;23.70;5.60;;;;;;4981454;28;20452;-68
2021/03/30 12:12:22;;;;;;;7.13;5.10;;;23.30;5.60;;;;;;4982444;28;20252;-68
2021/03/30 12:14:48;;;;;;;7.10;5.17;;;23.40;5.70;;;;;;4980231;28;20452;-69
2021/03/30 12:17:14;;;;;;;6.00;5.40;;;23.30;5.40;;;;;;4981244;28;20222;-70
2021/03/30 12:19:39;;;;;;;6.20;5.57;;;23.10;5.00;;;;;;4982446;28;20229;-68
2021/03/30 12:22:05;;;;;;;5.30;4.80;;;23.00;5.30;;;;;;4980909;28;20226;-69
2021/03/30 12:24:30;;;;;;;12.60;5.77;;;23.00;5.50;;;;;;4962217;28;20234;-70
2021/03/30 12:26:56;;;;;;;9.40;5.40;;;23.00;6.50;;;;;;4962671;28;20238;-69
2021/03/30 12:29:21;;;;;;;5.77;4.70;;;22.90;6.10;;;;;;4963240;28;20774;-68
2021/03/30 12:31:47;;;;;;;9.73;5.40;;;22.80;5.50;;;;;;4963512;28;20261;-68
2021/03/30 12:34:13;;;;;;;8.97;8.07;;;22.70;6.00;;;;;;4962563;28;20238;-68
2021/03/30 12:36:40;;;;;;;7.70;5.63;;;22.90;4.30;;;;;;4962754;28;21815;-70
2021/03/30 12:39:06;;;;;;;6.33;4.47;;;22.80;4.90;;;;;;4972979;28;20449;-68
2021/03/30 12:41:32;;;;;;;5.60;4.50;;;22.70;6.00;;;;;;4983642;28;20805;-69
2021/03/30 12:43:57;;;;;;;4.37;4.07;;;22.60;4.20;;;;;;4977951;28;20561;-68
2021/03/30 12:46:23;;;;;;;4.90;4.57;;;22.50;4.20;;;;;;4964422;28;20226;-67
2021/03/30 12:48:48;;;;;;;7.00;4.70;;;22.50;3.50;;;;;;4961927;28;20245;-67
2021/03/30 12:51:15;;;;;;;5.37;4.43;;;22.60;4.30;;;;;;4962118;28;20297;-68
2021/03/30 12:53:41;;;;;;;8.70;5.40;;;22.80;2.90;;;;;;4966061;28;20257;-68
2021/03/30 12:56:07;;;;;;;4.67;4.20;;;22.70;4.60;;;;;;4962447;28;20882;-69
2021/03/30 12:58:33;;;;;;;61.13;10.50;;;22.70;4.50;;;;;;4962771;28;20557;-68